createdAt,value
2017-07-29T00:01:41.403Z,19.06
2017-07-29T00:04:23.811Z,19.11
2017-07-29T00:06:25.241Z,19.14
2017-07-29T00:08:26.668Z,19.13
2017-07-29T00:10:28.094Z,19.05
2017-07-29T00:12:29.522Z,19.14
2017-07-29T00:14:30.955Z,19.15
2017-07-29T00:16:32.388Z,19.17
2017-07-29T00:18:33.814Z,19.13
2017-07-29T00:20:35.239Z,19.01
2017-07-29T00:22:36.670Z,19.05
2017-07-29T00:24:38.123Z,19.10
2017-07-29T00:26:39.629Z,18.98
2017-07-29T00:28:41.109Z,19.01
2017-07-29T00:30:42.551Z,19.01
2017-07-29T00:32:44.001Z,18.92
2017-07-29T00:34:45.614Z,18.91
2017-07-29T00:36:47.009Z,18.92
2017-07-29T00:39:29.558Z,18.98
2017-07-29T00:41:31.036Z,18.94
2017-07-29T00:43:32.463Z,18.98
2017-07-29T00:45:33.900Z,18.95
2017-07-29T00:47:35.334Z,18.98
2017-07-29T00:49:36.843Z,18.97
2017-07-29T00:51:38.268Z,19.08
2017-07-29T00:53:39.694Z,18.99
2017-07-29T00:55:41.120Z,18.95
2017-07-29T00:57:42.551Z,19.01
2017-07-29T00:59:43.982Z,19.02
2017-07-29T01:01:45.405Z,19.10
2017-07-29T01:03:46.843Z,19.14
2017-07-29T01:05:48.266Z,19.14
2017-07-29T01:07:49.697Z,19.23
2017-07-29T01:09:51.123Z,19.06
2017-07-29T01:12:33.543Z,19.14
2017-07-29T01:14:34.961Z,19.02
2017-07-29T01:16:36.389Z,19.02
2017-07-29T01:18:37.827Z,19.14
2017-07-29T01:20:39.266Z,19.11
2017-07-29T01:22:40.762Z,19.08
2017-07-29T01:25:23.199Z,19.08
2017-07-29T01:27:24.627Z,19.08
2017-07-29T01:29:26.059Z,18.98
2017-07-29T01:31:27.480Z,18.99
2017-07-29T01:33:28.906Z,18.98
2017-07-29T01:35:30.330Z,18.94
2017-07-29T01:37:31.758Z,18.99
2017-07-29T01:39:33.176Z,18.94
2017-07-29T01:41:34.702Z,18.99
2017-07-29T01:43:36.124Z,18.83
2017-07-29T01:45:37.543Z,18.90
2017-07-29T01:47:39.007Z,18.94
2017-07-29T01:49:40.436Z,18.95
2017-07-29T01:51:41.903Z,18.91
2017-07-29T01:53:43.327Z,18.99
2017-07-29T01:55:44.788Z,18.99
2017-07-29T01:57:46.341Z,19.05
2017-07-29T01:59:47.781Z,19.08
2017-07-29T02:01:49.272Z,19.02
2017-07-29T02:03:50.835Z,19.08
2017-07-29T02:05:52.370Z,19.06
2017-07-29T02:07:53.870Z,19.05
2017-07-29T02:09:55.312Z,19.02
2017-07-29T02:11:56.734Z,18.99
2017-07-29T02:13:58.176Z,19.02
2017-07-29T02:15:59.615Z,19.05
2017-07-29T02:18:01.153Z,19.06
2017-07-29T02:20:43.564Z,19.15
2017-07-29T02:22:44.977Z,18.99
2017-07-29T02:24:46.406Z,19.06
2017-07-29T02:26:47.830Z,19.08
2017-07-29T02:28:49.255Z,19.08
2017-07-29T02:30:50.694Z,19.13
2017-07-29T02:32:52.109Z,19.08
2017-07-29T02:35:34.613Z,19.10
2017-07-29T02:37:36.024Z,19.13
2017-07-29T02:39:37.452Z,19.14
2017-07-29T02:41:38.876Z,19.13
2017-07-29T02:43:40.329Z,19.06
2017-07-29T02:45:41.762Z,19.05
2017-07-29T02:47:43.193Z,19.15
2017-07-29T02:49:44.621Z,19.15
2017-07-29T02:51:46.051Z,19.14
2017-07-29T02:53:47.477Z,19.17
2017-07-29T02:55:48.895Z,19.15
2017-07-29T02:57:50.442Z,19.08
2017-07-29T02:59:51.987Z,19.17
2017-07-29T03:01:53.528Z,19.06
2017-07-29T03:03:54.958Z,19.05
2017-07-29T03:06:37.383Z,19.13
2017-07-29T03:08:38.823Z,19.02
2017-07-29T03:10:40.242Z,19.05
2017-07-29T03:12:41.664Z,19.05
2017-07-29T03:14:43.088Z,19.02
2017-07-29T03:16:44.529Z,19.17
2017-07-29T03:18:45.949Z,19.02
2017-07-29T03:20:47.378Z,19.05
2017-07-29T03:22:48.807Z,19.08
2017-07-29T03:24:50.234Z,19.14
2017-07-29T03:26:51.668Z,19.06
2017-07-29T03:28:53.092Z,19.18
2017-07-29T03:30:54.520Z,19.14
2017-07-29T03:32:55.950Z,19.23
2017-07-29T03:34:57.381Z,19.25
2017-07-29T03:36:58.811Z,19.25
2017-07-29T03:39:00.241Z,19.25
2017-07-29T03:41:01.679Z,19.38
2017-07-29T03:43:03.103Z,19.29
2017-07-29T03:45:04.565Z,19.36
2017-07-29T03:47:06.040Z,19.31
2017-07-29T03:49:07.584Z,19.23
2017-07-29T03:51:09.029Z,19.33
2017-07-29T03:53:10.454Z,19.35
2017-07-29T03:55:11.897Z,19.39
2017-07-29T03:57:13.323Z,19.35
2017-07-29T03:59:55.949Z,19.40
2017-07-29T04:01:57.338Z,19.42
2017-07-29T04:03:58.767Z,19.39
2017-07-29T04:06:00.204Z,19.38
2017-07-29T04:08:01.627Z,19.42
2017-07-29T04:10:44.048Z,19.36
2017-07-29T04:12:45.477Z,19.39
2017-07-29T04:14:46.905Z,19.31
2017-07-29T04:16:48.335Z,19.35
2017-07-29T04:18:49.761Z,19.36
2017-07-29T04:20:51.187Z,19.40
2017-07-29T04:22:52.615Z,19.42
2017-07-29T04:24:54.037Z,19.38
2017-07-29T04:26:55.474Z,19.33
2017-07-29T04:28:56.893Z,19.39
2017-07-29T04:30:58.326Z,19.42
2017-07-29T04:33:40.757Z,19.40
2017-07-29T04:35:42.185Z,19.42
2017-07-29T04:37:43.615Z,19.42
2017-07-29T04:39:45.046Z,19.40
2017-07-29T04:41:46.480Z,19.39
2017-07-29T04:43:47.910Z,19.50
2017-07-29T04:45:49.336Z,19.60
2017-07-29T04:47:50.767Z,19.48
2017-07-29T04:49:52.204Z,19.51
2017-07-29T04:51:53.634Z,19.47
2017-07-29T04:53:55.061Z,19.54
2017-07-29T04:55:56.492Z,19.63
2017-07-29T04:57:57.939Z,19.50
2017-07-29T04:59:59.367Z,19.53
2017-07-29T05:02:00.809Z,19.60
2017-07-29T05:04:43.245Z,19.54
2017-07-29T05:06:44.676Z,19.69
2017-07-29T05:08:46.115Z,19.63
2017-07-29T05:10:47.540Z,19.53
2017-07-29T05:12:48.975Z,19.54
2017-07-29T05:14:50.403Z,19.50
2017-07-29T05:16:51.832Z,19.51
2017-07-29T05:18:53.261Z,19.58
2017-07-29T05:21:35.682Z,19.66
2017-07-29T05:23:37.104Z,19.79
2017-07-29T05:25:38.543Z,19.75
2017-07-29T05:27:39.978Z,19.79
2017-07-29T05:29:41.418Z,19.78
2017-07-29T05:31:42.845Z,19.78
2017-07-29T05:33:44.273Z,19.86
2017-07-29T05:35:45.707Z,19.88
2017-07-29T05:37:47.137Z,19.88
2017-07-29T05:39:48.564Z,19.90
2017-07-29T05:41:50.075Z,19.98
2017-07-29T05:44:32.532Z,20.03
2017-07-29T05:46:33.966Z,20.09
2017-07-29T05:48:35.398Z,20.13
2017-07-29T05:50:36.829Z,20.12
2017-07-29T05:52:38.266Z,20.09
2017-07-29T05:54:39.702Z,20.06
2017-07-29T05:56:41.128Z,20.08
2017-07-29T05:59:23.574Z,20.10
2017-07-29T06:01:25.003Z,20.23
2017-07-29T06:03:26.433Z,20.20
2017-07-29T06:05:27.864Z,20.13
2017-07-29T06:07:29.300Z,20.24
2017-07-29T06:10:11.726Z,20.38
2017-07-29T06:12:13.162Z,20.42
2017-07-29T06:14:14.682Z,20.46
2017-07-29T06:16:16.080Z,20.42
2017-07-29T06:18:17.510Z,20.38
2017-07-29T06:20:18.948Z,20.43
2017-07-29T06:22:20.372Z,20.35
2017-07-29T06:24:21.798Z,20.39
2017-07-29T06:27:04.238Z,20.28
2017-07-29T06:29:05.669Z,20.34
2017-07-29T06:31:07.107Z,20.31
2017-07-29T06:33:49.526Z,20.30
2017-07-29T06:35:50.961Z,20.28
2017-07-29T06:37:52.391Z,20.34
2017-07-29T06:39:53.843Z,20.58
2017-07-29T06:41:55.262Z,20.84
2017-07-29T06:43:56.692Z,20.87
2017-07-29T06:45:58.325Z,20.95
2017-07-29T06:47:59.810Z,20.96
2017-07-29T06:50:01.329Z,21.02
2017-07-29T06:52:02.780Z,21.44
2017-07-29T06:54:04.206Z,21.35
2017-07-29T06:56:05.657Z,21.24
2017-07-29T06:58:07.089Z,21.20
2017-07-29T07:00:08.527Z,21.04
2017-07-29T07:02:10.019Z,21.02
2017-07-29T07:04:11.475Z,20.87
2017-07-29T07:06:12.972Z,20.96
2017-07-29T07:08:14.406Z,20.84
2017-07-29T07:10:15.954Z,20.68
2017-07-29T07:12:17.577Z,20.50
2017-07-29T07:14:19.151Z,20.65
2017-07-29T07:16:20.795Z,20.65
2017-07-29T07:18:22.314Z,20.56
2017-07-29T07:20:23.859Z,20.69
2017-07-29T07:22:25.349Z,20.72
2017-07-29T07:24:26.851Z,20.69
2017-07-29T07:26:28.366Z,20.64
2017-07-29T07:29:10.936Z,20.68
2017-07-29T07:31:12.328Z,20.68
2017-07-29T07:33:13.756Z,20.64
2017-07-29T07:35:15.396Z,20.76
2017-07-29T07:37:57.940Z,20.72
2017-07-29T07:39:59.364Z,20.91
2017-07-29T07:42:00.795Z,20.81
2017-07-29T07:44:02.224Z,20.74
2017-07-29T07:46:03.668Z,20.79
2017-07-29T07:48:05.171Z,20.72
2017-07-29T07:50:06.597Z,20.79
2017-07-29T07:52:08.142Z,20.80
2017-07-29T07:54:09.681Z,20.83
2017-07-29T07:56:11.244Z,20.90
2017-07-29T07:58:12.836Z,21.08
2017-07-29T08:00:55.362Z,21.23
2017-07-29T08:02:56.790Z,21.39
2017-07-29T08:04:58.226Z,21.44
2017-07-29T08:06:59.651Z,21.45
2017-07-29T08:09:01.097Z,21.51
2017-07-29T08:11:02.535Z,21.42
2017-07-29T08:13:03.961Z,21.44
2017-07-29T08:15:05.395Z,21.34
2017-07-29T08:17:06.839Z,21.38
2017-07-29T08:19:08.267Z,21.19
2017-07-29T08:21:09.696Z,21.23
2017-07-29T08:23:11.128Z,21.11
2017-07-29T08:25:12.580Z,21.06
2017-07-29T08:27:14.018Z,21.11
2017-07-29T08:29:15.444Z,21.19
2017-07-29T08:31:16.888Z,21.24
2017-07-29T08:33:18.319Z,21.20
2017-07-29T08:35:19.754Z,21.36
2017-07-29T08:37:21.185Z,21.19
2017-07-29T08:39:22.615Z,21.23
2017-07-29T08:41:24.056Z,21.14
2017-07-29T08:43:25.488Z,21.09
2017-07-29T08:45:26.930Z,21.30
2017-07-29T08:47:28.355Z,21.39
2017-07-29T08:49:29.788Z,21.57
2017-07-29T08:51:31.222Z,21.69
2017-07-29T08:53:32.689Z,21.75
2017-07-29T08:55:34.134Z,21.94
2017-07-29T08:57:35.571Z,22.07
2017-07-29T08:59:37.009Z,22.13
2017-07-29T09:01:38.436Z,22.12
2017-07-29T09:03:39.878Z,22.29
2017-07-29T09:05:41.324Z,22.12
2017-07-29T09:07:42.783Z,22.16
2017-07-29T09:09:44.245Z,22.16
2017-07-29T09:11:45.674Z,22.13
2017-07-29T09:13:47.163Z,22.13
2017-07-29T09:15:48.681Z,22.17
2017-07-29T09:17:50.166Z,22.10
2017-07-29T09:19:51.732Z,22.10
2017-07-29T09:21:53.300Z,21.98
2017-07-29T09:23:54.868Z,22.04
2017-07-29T09:25:56.427Z,22.13
2017-07-29T09:28:38.851Z,22.32
2017-07-29T09:31:21.282Z,22.39
2017-07-29T09:33:22.727Z,22.27
2017-07-29T09:35:24.163Z,22.39
2017-07-29T09:37:25.601Z,22.23
2017-07-29T09:39:27.035Z,22.13
2017-07-29T09:41:28.470Z,22.14
2017-07-29T09:44:10.893Z,22.10
2017-07-29T09:46:53.296Z,22.13
2017-07-29T09:48:54.729Z,22.01
2017-07-29T09:50:56.166Z,21.98
2017-07-29T09:52:57.606Z,22.16
2017-07-29T09:54:59.038Z,22.13
2017-07-29T09:57:00.533Z,22.14
2017-07-29T09:59:01.971Z,22.39
2017-07-29T10:01:03.401Z,22.64
2017-07-29T10:03:04.836Z,22.83
2017-07-29T10:05:06.274Z,22.84
2017-07-29T10:07:07.714Z,22.86
2017-07-29T10:09:09.209Z,22.72
2017-07-29T10:11:10.756Z,22.78
2017-07-29T10:13:12.264Z,22.80
2017-07-29T10:15:13.817Z,23.05
2017-07-29T10:17:15.344Z,23.01
2017-07-29T10:19:57.760Z,23.31
2017-07-29T10:21:59.198Z,23.55
2017-07-29T10:24:00.637Z,23.67
2017-07-29T10:26:02.078Z,23.62
2017-07-29T10:28:03.511Z,23.60
2017-07-29T10:30:04.953Z,23.53
2017-07-29T10:32:06.390Z,23.42
2017-07-29T10:34:07.832Z,23.47
2017-07-29T10:36:09.269Z,23.47
2017-07-29T10:38:10.716Z,23.23
2017-07-29T10:40:12.144Z,23.02
2017-07-29T10:42:13.582Z,22.96
2017-07-29T10:44:15.020Z,22.99
2017-07-29T10:46:16.457Z,23.09
2017-07-29T10:48:17.897Z,23.26
2017-07-29T10:50:19.337Z,23.23
2017-07-29T10:52:20.776Z,23.34
2017-07-29T10:54:22.211Z,23.34
2017-07-29T10:56:23.653Z,23.58
2017-07-29T10:58:25.088Z,23.77
2017-07-29T11:00:26.524Z,24.05
2017-07-29T11:02:27.965Z,24.16
2017-07-29T11:04:29.404Z,24.27
2017-07-29T11:06:30.842Z,24.31
2017-07-29T11:08:32.280Z,24.20
2017-07-29T11:10:33.723Z,24.16
2017-07-29T11:12:35.153Z,24.14
2017-07-29T11:14:36.595Z,24.07
2017-07-29T11:16:38.029Z,23.97
2017-07-29T11:18:39.470Z,23.70
2017-07-29T11:20:40.909Z,23.77
2017-07-29T11:22:42.348Z,23.82
2017-07-29T11:25:24.762Z,23.52
2017-07-29T11:27:26.200Z,23.43
2017-07-29T11:29:27.643Z,23.29
2017-07-29T11:31:29.133Z,23.17
2017-07-29T11:33:30.545Z,22.96
2017-07-29T11:35:31.983Z,22.99
2017-07-29T11:37:33.412Z,22.87
2017-07-29T11:39:34.853Z,22.83
2017-07-29T11:41:36.287Z,22.99
2017-07-29T11:43:37.732Z,23.19
2017-07-29T11:45:39.168Z,23.19
2017-07-29T11:47:40.603Z,23.34
2017-07-29T11:49:42.039Z,23.39
2017-07-29T11:51:43.470Z,23.38
2017-07-29T11:53:44.911Z,23.42
2017-07-29T11:55:46.349Z,23.43
2017-07-29T11:57:47.779Z,23.38
2017-07-29T11:59:49.222Z,23.38
2017-07-29T12:01:50.658Z,23.27
2017-07-29T12:03:52.093Z,23.23
2017-07-29T12:06:34.509Z,23.20
2017-07-29T12:08:35.944Z,23.32
2017-07-29T12:10:37.395Z,23.35
2017-07-29T12:12:38.819Z,23.26
2017-07-29T12:14:40.249Z,23.24
2017-07-29T12:16:41.699Z,23.34
2017-07-29T12:18:43.135Z,23.64
2017-07-29T12:20:44.598Z,23.53
2017-07-29T12:22:46.039Z,23.49
2017-07-29T12:24:47.480Z,23.61
2017-07-29T12:26:48.921Z,23.70
2017-07-29T12:28:50.356Z,23.92
2017-07-29T12:30:51.790Z,23.83
2017-07-29T12:32:53.240Z,23.68
2017-07-29T12:34:54.667Z,23.53
2017-07-29T12:37:37.094Z,23.53
2017-07-29T12:39:38.525Z,23.42
2017-07-29T12:41:39.956Z,23.40
2017-07-29T12:43:41.392Z,23.43
2017-07-29T12:45:42.833Z,23.46
2017-07-29T12:47:44.270Z,23.47
2017-07-29T12:49:45.705Z,23.32
2017-07-29T12:51:47.147Z,23.08
2017-07-29T12:53:48.575Z,22.94
2017-07-29T12:55:50.011Z,22.94
2017-07-29T12:57:51.446Z,22.93
2017-07-29T12:59:52.883Z,22.94
2017-07-29T13:01:54.322Z,23.08
2017-07-29T13:03:55.759Z,23.15
2017-07-29T13:05:57.198Z,23.32
2017-07-29T13:07:58.635Z,23.60
2017-07-29T13:10:00.071Z,23.72
2017-07-29T13:12:01.509Z,24.05
2017-07-29T13:14:02.947Z,24.39
2017-07-29T13:16:04.385Z,24.45
2017-07-29T13:18:05.826Z,24.52
2017-07-29T13:20:07.265Z,24.68
2017-07-29T13:22:08.702Z,24.73
2017-07-29T13:24:10.153Z,24.92
2017-07-29T13:26:11.585Z,24.98
2017-07-29T13:28:13.026Z,25.19
2017-07-29T13:30:14.459Z,25.31
2017-07-29T13:32:15.906Z,25.20
2017-07-29T13:34:17.393Z,25.19
2017-07-29T13:36:18.851Z,25.02
2017-07-29T13:38:20.444Z,24.79
2017-07-29T13:40:21.947Z,24.82
2017-07-29T13:42:23.434Z,24.92
2017-07-29T13:44:24.923Z,24.82
2017-07-29T13:46:26.432Z,24.94
2017-07-29T13:48:27.895Z,24.98
2017-07-29T13:50:29.408Z,24.82
2017-07-29T13:52:30.888Z,24.75
2017-07-29T13:54:32.406Z,24.82
2017-07-29T13:56:33.893Z,24.87
2017-07-29T13:58:35.451Z,24.80
2017-07-29T14:00:36.923Z,24.71
2017-07-29T14:02:38.489Z,24.47
2017-07-29T14:04:40.071Z,24.45
2017-07-29T14:06:41.635Z,24.73
2017-07-29T14:08:43.157Z,24.71
2017-07-29T14:10:44.726Z,24.75
2017-07-29T14:12:46.301Z,24.80
2017-07-29T14:14:47.838Z,24.85
2017-07-29T14:16:49.386Z,24.79
2017-07-29T14:18:50.936Z,24.80
2017-07-29T14:20:54.447Z,24.68
2017-07-29T14:23:36.890Z,24.76
2017-07-29T14:25:38.322Z,24.91
2017-07-29T14:27:39.755Z,24.95
2017-07-29T14:29:41.773Z,24.97
2017-07-29T14:31:43.468Z,24.87
2017-07-29T14:33:44.887Z,25.02
2017-07-29T14:35:46.338Z,25.16
2017-07-29T14:37:47.770Z,25.19
2017-07-29T14:39:49.232Z,25.35
2017-07-29T14:41:50.697Z,25.35
2017-07-29T14:43:53.030Z,25.30
2017-07-29T14:45:54.511Z,25.31
2017-07-29T14:47:56.088Z,25.20
2017-07-29T14:49:57.630Z,25.28
2017-07-29T14:51:59.172Z,25.13
2017-07-29T14:54:00.681Z,25.00
2017-07-29T14:56:02.572Z,25.00
2017-07-29T14:58:04.164Z,25.05
2017-07-29T15:00:05.702Z,25.09
2017-07-29T15:02:07.222Z,25.17
2017-07-29T15:04:08.789Z,25.20
2017-07-29T15:06:51.218Z,25.22
2017-07-29T15:08:52.698Z,25.16
2017-07-29T15:10:54.136Z,25.09
2017-07-29T15:12:55.583Z,25.06
2017-07-29T15:14:57.023Z,24.87
2017-07-29T15:16:58.462Z,24.79
2017-07-29T15:18:59.900Z,24.73
2017-07-29T15:21:01.337Z,24.67
2017-07-29T15:23:02.790Z,24.75
2017-07-29T15:25:04.226Z,24.76
2017-07-29T15:27:05.661Z,24.73
2017-07-29T15:29:07.144Z,24.71
2017-07-29T15:31:08.578Z,24.71
2017-07-29T15:33:10.014Z,24.68
2017-07-29T15:35:11.456Z,24.63
2017-07-29T15:37:12.909Z,24.69
2017-07-29T15:39:14.422Z,24.85
2017-07-29T15:41:55.965Z,24.82
2017-07-29T15:43:57.530Z,24.90
2017-07-29T15:45:58.968Z,24.97
2017-07-29T15:48:00.428Z,24.85
2017-07-29T15:50:01.859Z,24.88
2017-07-29T15:52:03.321Z,24.90
2017-07-29T15:54:04.779Z,24.85
2017-07-29T15:56:46.385Z,24.83
2017-07-29T15:58:47.831Z,24.85
2017-07-29T16:00:49.265Z,24.79
2017-07-29T16:02:50.698Z,24.82
2017-07-29T16:04:52.132Z,24.88
2017-07-29T16:06:53.591Z,24.94
2017-07-29T16:08:55.017Z,24.91
2017-07-29T16:10:56.453Z,24.94
2017-07-29T16:12:57.891Z,24.95
2017-07-29T16:14:59.927Z,25.00
2017-07-29T16:17:01.473Z,25.00
2017-07-29T16:19:02.939Z,24.97
2017-07-29T16:21:04.401Z,24.88
2017-07-29T16:23:05.903Z,24.97
2017-07-29T16:25:07.414Z,24.87
2017-07-29T16:27:08.920Z,24.77
2017-07-29T16:29:10.496Z,24.79
2017-07-29T16:31:12.059Z,24.77
2017-07-29T16:33:13.601Z,24.80
2017-07-29T16:35:15.106Z,24.67
2017-07-29T16:37:16.711Z,24.68
2017-07-29T16:39:18.254Z,24.63
2017-07-29T16:41:19.819Z,24.63
2017-07-29T16:43:21.364Z,24.67
2017-07-29T16:45:22.901Z,24.64
2017-07-29T16:47:24.512Z,24.64
2017-07-29T16:49:26.073Z,24.80
2017-07-29T16:51:27.568Z,24.77
2017-07-29T16:53:29.121Z,24.76
2017-07-29T16:55:30.692Z,24.82
2017-07-29T16:57:32.223Z,24.90
2017-07-29T17:00:14.072Z,24.94
2017-07-29T17:02:15.595Z,24.91
2017-07-29T17:04:17.166Z,24.98
2017-07-29T17:06:18.904Z,25.17
2017-07-29T17:08:20.448Z,25.17
2017-07-29T17:10:21.989Z,25.19
2017-07-29T17:12:23.730Z,25.17
2017-07-29T17:14:25.223Z,25.22
2017-07-29T17:16:26.748Z,25.24
2017-07-29T17:18:28.298Z,25.17
2017-07-29T17:20:29.836Z,25.19
2017-07-29T17:22:31.495Z,25.17
2017-07-29T17:24:33.311Z,25.12
2017-07-29T17:26:34.911Z,25.25
2017-07-29T17:28:36.473Z,25.28
2017-07-29T17:30:38.073Z,25.17
2017-07-29T17:32:39.730Z,25.16
2017-07-29T17:34:41.564Z,25.02
2017-07-29T17:36:43.467Z,25.09
2017-07-29T17:38:45.279Z,25.09
2017-07-29T17:40:46.794Z,25.06
2017-07-29T17:42:48.614Z,24.95
2017-07-29T17:44:50.403Z,25.06
2017-07-29T17:46:52.276Z,25.01
2017-07-29T17:48:53.850Z,25.15
2017-07-29T17:50:55.389Z,25.07
2017-07-29T17:52:57.002Z,25.12
2017-07-29T17:54:58.543Z,25.09
2017-07-29T17:57:00.064Z,25.15
2017-07-29T17:59:01.912Z,25.06
2017-07-29T18:01:03.423Z,25.13
2017-07-29T18:03:05.291Z,25.07
2017-07-29T18:05:06.958Z,25.12
2017-07-29T18:07:08.748Z,25.06
2017-07-29T18:09:10.596Z,25.05
2017-07-29T18:11:12.394Z,25.06
2017-07-29T18:13:14.128Z,25.00
2017-07-29T18:15:16.514Z,25.00
2017-07-29T18:17:18.039Z,24.92
2017-07-29T18:19:19.577Z,24.94
2017-07-29T18:21:21.275Z,24.90
2017-07-29T18:23:23.041Z,24.83
2017-07-29T18:25:24.588Z,24.76
2017-07-29T18:27:26.580Z,24.83
2017-07-29T18:29:28.150Z,24.83
2017-07-29T18:31:29.825Z,24.79
2017-07-29T18:33:31.495Z,24.75
2017-07-29T18:35:33.011Z,24.76
2017-07-29T18:37:34.776Z,24.75
2017-07-29T18:39:36.683Z,24.75
2017-07-29T18:41:38.407Z,24.67
2017-07-29T18:43:39.999Z,24.64
2017-07-29T18:45:41.582Z,24.67
2017-07-29T18:47:43.185Z,24.54
2017-07-29T18:49:45.034Z,24.47
2017-07-29T18:51:46.509Z,24.47
2017-07-29T18:53:48.095Z,24.39
2017-07-29T18:55:49.857Z,24.41
2017-07-29T18:57:51.342Z,24.39
2017-07-29T18:59:53.033Z,24.35
2017-07-29T19:01:54.538Z,24.34
2017-07-29T19:03:56.178Z,24.29
2017-07-29T19:05:58.031Z,24.34
2017-07-29T19:07:59.551Z,24.24
2017-07-29T19:10:01.042Z,24.16
2017-07-29T19:12:02.721Z,24.20
2017-07-29T19:14:04.245Z,24.19
2017-07-29T19:16:05.792Z,24.14
2017-07-29T19:18:07.590Z,24.20
2017-07-29T19:20:09.127Z,24.12
2017-07-29T19:22:10.658Z,24.07
2017-07-29T19:24:12.228Z,24.07
2017-07-29T19:26:13.795Z,24.04
2017-07-29T19:28:56.244Z,24.00
2017-07-29T19:30:57.702Z,24.00
2017-07-29T19:32:59.153Z,23.85
2017-07-29T19:35:00.593Z,23.95
2017-07-29T19:37:02.035Z,23.86
2017-07-29T19:39:03.484Z,23.86
2017-07-29T19:41:04.922Z,23.87
2017-07-29T19:43:06.362Z,23.89
2017-07-29T19:45:07.805Z,23.83
2017-07-29T19:47:09.254Z,23.80
2017-07-29T19:49:10.718Z,23.75
2017-07-29T19:51:12.223Z,23.71
2017-07-29T19:53:13.633Z,23.76
2017-07-29T19:55:15.085Z,23.76
2017-07-29T19:57:16.618Z,23.76
2017-07-29T19:59:18.177Z,23.67
2017-07-29T20:02:00.578Z,23.76
2017-07-29T20:04:02.010Z,23.70
2017-07-29T20:06:03.453Z,23.70
2017-07-29T20:08:04.894Z,23.71
2017-07-29T20:10:06.342Z,23.70
2017-07-29T20:12:07.772Z,23.68
2017-07-29T20:14:09.199Z,23.68
2017-07-29T20:16:51.620Z,23.76
2017-07-29T20:18:53.052Z,23.72
2017-07-29T20:20:54.485Z,23.79
2017-07-29T20:22:55.918Z,23.71
2017-07-29T20:24:57.351Z,23.77
2017-07-29T20:26:58.781Z,23.79
2017-07-29T20:29:00.219Z,23.60
2017-07-29T20:31:01.656Z,23.67
2017-07-29T20:33:03.086Z,23.65
2017-07-29T20:35:45.518Z,23.65
2017-07-29T20:37:47.017Z,23.61
2017-07-29T20:39:48.455Z,23.60
2017-07-29T20:41:49.885Z,23.64
2017-07-29T20:43:51.319Z,23.67
2017-07-29T20:45:52.751Z,23.58
2017-07-29T20:47:54.183Z,23.64
2017-07-29T20:49:55.613Z,23.64
2017-07-29T20:51:57.064Z,23.62
2017-07-29T20:53:58.485Z,23.60
2017-07-29T20:55:59.921Z,23.67
2017-07-29T20:58:01.353Z,23.61
2017-07-29T21:00:02.864Z,23.53
2017-07-29T21:02:04.296Z,23.60
2017-07-29T21:04:05.760Z,23.50
2017-07-29T21:06:07.169Z,23.50
2017-07-29T21:08:08.620Z,23.52
2017-07-29T21:10:10.071Z,23.60
2017-07-29T21:12:11.505Z,23.61
2017-07-29T21:14:12.938Z,23.60
2017-07-29T21:16:14.389Z,23.58
2017-07-29T21:18:15.852Z,23.47
2017-07-29T21:20:17.404Z,23.60
2017-07-29T21:22:18.885Z,23.68
2017-07-29T21:24:20.356Z,23.57
2017-07-29T21:26:21.892Z,23.61
2017-07-29T21:28:23.393Z,23.52
2017-07-29T21:30:24.940Z,23.64
2017-07-29T21:32:26.480Z,23.64
2017-07-29T21:34:28.036Z,23.52
2017-07-29T21:36:29.510Z,23.57
2017-07-29T21:38:31.029Z,23.60
2017-07-29T21:40:32.477Z,23.60
2017-07-29T21:42:34.000Z,23.70
2017-07-29T21:44:35.520Z,23.62
2017-07-29T21:46:37.071Z,23.70
2017-07-29T21:48:38.607Z,23.55
2017-07-29T21:50:40.108Z,23.61
2017-07-29T21:52:41.645Z,23.62
2017-07-29T21:54:43.265Z,23.68
2017-07-29T21:56:44.758Z,23.68
2017-07-29T21:58:46.266Z,23.65
2017-07-29T22:00:47.808Z,23.57
2017-07-29T22:02:49.328Z,23.65
2017-07-29T22:04:50.851Z,23.67
2017-07-29T22:06:52.341Z,23.62
2017-07-29T22:09:34.797Z,23.62
2017-07-29T22:11:36.230Z,23.57
2017-07-29T22:13:37.668Z,23.53
2017-07-29T22:15:39.154Z,23.61
2017-07-29T22:17:40.578Z,23.62
2017-07-29T22:19:42.008Z,23.55
2017-07-29T22:21:43.454Z,23.62
2017-07-29T22:24:25.897Z,23.57
2017-07-29T22:26:27.302Z,23.52
2017-07-29T22:28:28.737Z,23.47
2017-07-29T22:30:30.171Z,23.50
2017-07-29T22:32:31.602Z,23.64
2017-07-29T22:34:33.031Z,23.60
2017-07-29T22:36:34.478Z,23.62
2017-07-29T22:38:35.908Z,23.60
2017-07-29T22:40:37.341Z,23.57
2017-07-29T22:42:38.772Z,23.55
2017-07-29T22:44:40.206Z,23.60
2017-07-29T22:46:41.637Z,23.49
2017-07-29T22:48:43.070Z,23.49
2017-07-29T22:50:44.503Z,23.47
2017-07-29T22:52:45.935Z,23.49
2017-07-29T22:54:47.368Z,23.39
2017-07-29T22:56:48.806Z,23.43
2017-07-29T22:58:50.235Z,23.58
2017-07-29T23:00:51.668Z,23.58
2017-07-29T23:02:53.097Z,23.57
2017-07-29T23:05:35.513Z,23.50
2017-07-29T23:07:36.948Z,23.61
2017-07-29T23:09:38.380Z,23.61
2017-07-29T23:11:39.816Z,23.55
2017-07-29T23:13:41.241Z,23.55
2017-07-29T23:15:42.673Z,23.45
2017-07-29T23:17:44.110Z,23.42
2017-07-29T23:20:26.534Z,23.60
2017-07-29T23:22:27.968Z,23.53
2017-07-29T23:24:29.405Z,23.53
2017-07-29T23:26:30.837Z,23.58
2017-07-29T23:28:32.272Z,23.58
2017-07-29T23:30:33.713Z,23.64
2017-07-29T23:32:35.139Z,23.55
2017-07-29T23:34:36.653Z,23.47
2017-07-29T23:36:38.161Z,23.52
2017-07-29T23:38:39.701Z,23.55
2017-07-29T23:40:41.213Z,23.53
2017-07-29T23:42:42.757Z,23.55
2017-07-29T23:44:44.268Z,23.50
2017-07-29T23:47:26.780Z,23.46
2017-07-29T23:49:28.207Z,23.46
2017-07-29T23:51:29.629Z,23.43
2017-07-29T23:53:31.063Z,23.58
2017-07-29T23:55:32.505Z,23.53
2017-07-29T23:57:33.928Z,23.58
2017-07-29T23:59:35.361Z,23.57
